Time;durP1;ratioP1;P1;durP2;ratioP2;P2;SDS_P1;SDS_P2;PMS_P1;PMS_P2;Temp;Humidity;BMP_temperature;BMP_pressure;BME280_temperature;BME280_humidity;BME280_pressure;Samples;Min_cycle;Max_cycle;Signal;HPM_P1;HPM_P2
2023/06/19 00:01:44;;;;;;;4.88;4.20;;;;;;;;;;5038534;28;20043;-77
2023/06/19 00:04:10;;;;;;;4.32;3.92;;;;;;;;;;5055143;28;20028;-76
2023/06/19 00:06:36;;;;;;;4.88;3.90;;;;;;;;;;5055520;28;20028;-77
2023/06/19 00:09:01;;;;;;;4.45;3.97;;;;;;;;;;5055002;28;20077;-77
2023/06/19 00:11:26;;;;;;;4.22;3.83;;;;;;;;;;5073168;28;20037;-77
2023/06/19 00:13:52;;;;;;;4.90;3.60;;;;;;;;;;5073383;28;20067;-77
2023/06/19 00:16:19;;;;;;;4.03;3.58;;;;;;;;;;5038754;28;20036;-77
2023/06/19 00:18:44;;;;;;;5.13;4.05;;;;;;;;;;5056200;28;20113;-77
2023/06/19 00:21:10;;;;;;;4.63;3.97;;;;;;;;;;5072936;28;20059;-76
2023/06/19 00:23:36;;;;;;;4.57;4.10;;;;;;;;;;5038518;28;20064;-77
2023/06/19 00:26:01;;;;;;;4.20;3.80;;;;;;;;;;5054990;28;20032;-77
2023/06/19 00:28:32;;;;;;;5.30;4.07;;;;;;;;;;5054764;28;20035;-77
2023/06/19 00:30:58;;;;;;;4.47;4.07;;;;;;;;;;5072763;28;20067;-77
2023/06/19 00:33:23;;;;;;;5.72;3.95;;;;;;;;;;5037966;28;20127;-77
2023/06/19 00:35:50;;;;;;;4.68;3.58;;;;;;;;;;5038342;28;20020;-77
2023/06/19 00:38:16;;;;;;;6.65;4.15;;;;;;;;;;5073037;28;20541;-76
2023/06/19 00:40:41;;;;;;;4.22;3.83;;;;;;;;;;5073086;28;20028;-76
2023/06/19 00:43:06;;;;;;;4.57;3.63;;;;;;;;;;5075258;28;20028;-77
2023/06/19 00:45:32;;;;;;;6.43;3.85;;;;;;;;;;5058597;28;20028;-77
2023/06/19 00:47:59;;;;;;;7.38;3.88;;;;;;;;;;5058791;28;20028;-77
2023/06/19 00:50:25;;;;;;;4.00;3.63;;;;;;;;;;5041639;28;20045;-77
2023/06/19 00:52:50;;;;;;;4.00;3.60;;;;;;;;;;5042112;28;20047;-76
2023/06/19 00:55:16;;;;;;;4.10;3.70;;;;;;;;;;5041460;28;20016;-77
2023/06/19 00:57:42;;;;;;;4.85;3.72;;;;;;;;;;5058489;28;20032;-77
2023/06/19 01:00:11;;;;;;;6.40;3.83;;;;;;;;;;5058663;28;20031;-76
2023/06/19 01:02:37;;;;;;;4.43;3.97;;;;;;;;;;5058748;28;20021;-77
2023/06/19 01:05:03;;;;;;;5.18;3.75;;;;;;;;;;5041714;28;20129;-76
2023/06/19 01:07:32;;;;;;;4.88;3.53;;;;;;;;;;5076335;28;20048;-76
2023/06/19 01:10:03;;;;;;;6.20;3.90;;;;;;;;;;5058768;28;20116;-78
2023/06/19 01:12:36;;;;;;;4.20;3.80;;;;;;;;;;5076069;28;20486;-78
2023/06/19 01:15:03;;;;;;;4.60;3.92;;;;;;;;;;5058516;28;20463;-77
2023/06/19 01:17:29;;;;;;;4.13;3.45;;;;;;;;;;5058370;28;20032;-77
2023/06/19 01:19:59;;;;;;;3.85;3.25;;;;;;;;;;5041460;28;20041;-78
2023/06/19 01:22:31;;;;;;;4.70;3.45;;;;;;;;;;5041278;28;20032;-77
2023/06/19 01:24:57;;;;;;;4.88;3.70;;;;;;;;;;5075912;28;20036;-77
2023/06/19 01:27:23;;;;;;;5.72;3.70;;;;;;;;;;5076178;28;20035;-77
2023/06/19 01:29:49;;;;;;;3.78;3.47;;;;;;;;;;5057894;28;20082;-77
2023/06/19 01:32:19;;;;;;;4.05;3.55;;;;;;;;;;5057749;28;20028;-76
2023/06/19 01:34:46;;;;;;;4.38;3.85;;;;;;;;;;5057920;28;20027;-77
2023/06/19 01:37:11;;;;;;;4.22;3.65;;;;;;;;;;5057781;28;20063;-76
2023/06/19 01:39:37;;;;;;;4.32;3.92;;;;;;;;;;5058079;28;20060;-77
2023/06/19 01:42:03;;;;;;;4.55;3.55;;;;;;;;;;5041191;28;20115;-76
2023/06/19 01:44:29;;;;;;;4.53;3.53;;;;;;;;;;5057662;28;20032;-76
2023/06/19 01:46:54;;;;;;;7.78;3.80;;;;;;;;;;5057561;28;20112;-77
2023/06/19 01:49:19;;;;;;;3.70;3.40;;;;;;;;;;5075628;28;20132;-77
2023/06/19 01:51:45;;;;;;;4.22;3.80;;;;;;;;;;5057376;28;20044;-77
2023/06/19 01:54:10;;;;;;;4.57;3.70;;;;;;;;;;5056665;28;20036;-77
2023/06/19 01:56:36;;;;;;;5.00;3.60;;;;;;;;;;5075260;28;20067;-77
2023/06/19 01:59:01;;;;;;;5.00;3.78;;;;;;;;;;5075943;28;20031;-77
2023/06/19 02:01:27;;;;;;;5.40;3.40;;;;;;;;;;5057662;28;20098;-77
2023/06/19 02:03:52;;;;;;;4.32;3.45;;;;;;;;;;5075745;28;20029;-77
2023/06/19 02:06:18;;;;;;;4.30;3.25;;;;;;;;;;5075030;28;20054;-77
2023/06/19 02:08:43;;;;;;;4.25;3.53;;;;;;;;;;5074935;28;20372;-77
2023/06/19 02:11:09;;;;;;;3.70;3.30;;;;;;;;;;5057252;28;20025;-77
2023/06/19 02:13:34;;;;;;;3.15;2.85;;;;;;;;;;5040590;28;20421;-77
2023/06/19 02:15:59;;;;;;;3.58;3.20;;;;;;;;;;5057655;28;20020;-77
2023/06/19 02:18:25;;;;;;;4.63;3.67;;;;;;;;;;5075076;28;20033;-77
2023/06/19 02:20:50;;;;;;;6.50;3.40;;;;;;;;;;5056888;28;20020;-77
2023/06/19 02:23:15;;;;;;;3.72;3.38;;;;;;;;;;5075351;28;20483;-76
2023/06/19 02:25:41;;;;;;;3.90;3.50;;;;;;;;;;5056744;28;20028;-76
2023/06/19 02:28:06;;;;;;;4.93;3.13;;;;;;;;;;5057097;28;20029;-76
2023/06/19 02:30:32;;;;;;;4.55;3.10;;;;;;;;;;5075106;28;20088;-76
2023/06/19 02:32:57;;;;;;;4.75;3.38;;;;;;;;;;5056726;28;20040;-76
2023/06/19 02:35:22;;;;;;;3.70;2.92;;;;;;;;;;5056710;28;20032;-77
2023/06/19 02:37:48;;;;;;;2.90;2.70;;;;;;;;;;5074381;28;20106;-77
2023/06/19 02:40:14;;;;;;;3.20;2.90;;;;;;;;;;5056511;28;20426;-77
2023/06/19 02:42:40;;;;;;;3.80;2.60;;;;;;;;;;5039789;28;20395;-77
2023/06/19 02:45:06;;;;;;;4.15;2.50;;;;;;;;;;5056571;28;20027;-77
2023/06/19 02:47:31;;;;;;;4.15;2.53;;;;;;;;;;5074386;28;20372;-77
2023/06/19 02:50:01;;;;;;;3.25;2.35;;;;;;;;;;5055985;28;20031;-76
2023/06/19 02:52:27;;;;;;;4.38;2.05;;;;;;;;;;5056621;28;20102;-76
2023/06/19 02:54:52;;;;;;;2.72;2.08;;;;;;;;;;5056247;28;20468;-77
2023/06/19 02:57:18;;;;;;;2.17;1.95;;;;;;;;;;5056274;28;20029;-77
2023/06/19 02:59:43;;;;;;;2.40;1.73;;;;;;;;;;5074452;28;20103;-76
2023/06/19 03:02:08;;;;;;;2.45;1.98;;;;;;;;;;5073885;28;20032;-76
2023/06/19 03:04:34;;;;;;;2.00;1.80;;;;;;;;;;5074013;28;20039;-77
2023/06/19 03:06:59;;;;;;;1.70;1.60;;;;;;;;;;5073059;28;20442;-77
2023/06/19 03:09:25;;;;;;;2.08;1.88;;;;;;;;;;5073835;28;20024;-77
2023/06/19 03:11:50;;;;;;;1.90;1.70;;;;;;;;;;5073925;28;20175;-77
2023/06/19 03:14:15;;;;;;;2.10;1.90;;;;;;;;;;5073680;28;20422;-77
2023/06/19 03:16:41;;;;;;;1.70;1.60;;;;;;;;;;5055746;28;20035;-77
2023/06/19 03:19:06;;;;;;;2.05;1.85;;;;;;;;;;5056063;28;20027;-77
2023/06/19 03:21:31;;;;;;;4.75;1.90;;;;;;;;;;5073678;28;20494;-77
2023/06/19 03:23:57;;;;;;;2.15;1.83;;;;;;;;;;5039021;28;20046;-77
2023/06/19 03:26:24;;;;;;;1.90;1.60;;;;;;;;;;5055691;28;20032;-77
2023/06/19 03:28:50;;;;;;;1.63;1.52;;;;;;;;;;5056023;28;20100;-77
2023/06/19 03:31:15;;;;;;;1.50;1.40;;;;;;;;;;5073622;28;20111;-77
2023/06/19 03:33:41;;;;;;;1.75;1.60;;;;;;;;;;5055594;28;20028;-77
2023/06/19 03:36:07;;;;;;;3.50;1.50;;;;;;;;;;5055491;28;20387;-77
2023/06/19 03:38:33;;;;;;;2.17;1.38;;;;;;;;;;5055928;28;20028;-77
2023/06/19 03:40:58;;;;;;;2.13;1.30;;;;;;;;;;5073561;28;20036;-77
2023/06/19 03:43:23;;;;;;;1.50;1.40;;;;;;;;;;5073135;28;20154;-77
2023/06/19 03:45:49;;;;;;;3.20;1.70;;;;;;;;;;5072977;28;20044;-76
2023/06/19 03:48:15;;;;;;;1.58;1.48;;;;;;;;;;5072884;28;20032;-76
2023/06/19 03:50:41;;;;;;;1.55;1.45;;;;;;;;;;5055571;28;20502;-77
2023/06/19 03:53:07;;;;;;;2.15;1.58;;;;;;;;;;5072960;28;20033;-77
2023/06/19 03:55:32;;;;;;;1.65;1.55;;;;;;;;;;5038405;28;20034;-77
2023/06/19 03:57:57;;;;;;;2.70;1.60;;;;;;;;;;5038262;28;20070;-77
2023/06/19 04:00:23;;;;;;;2.17;1.52;;;;;;;;;;5073008;28;20024;-76
2023/06/19 04:02:48;;;;;;;1.60;1.50;;;;;;;;;;5038661;28;20032;-77
2023/06/19 04:05:17;;;;;;;3.08;1.63;;;;;;;;;;5073003;28;20475;-77
2023/06/19 04:07:42;;;;;;;1.33;1.23;;;;;;;;;;5055301;28;20028;-78
2023/06/19 04:10:08;;;;;;;1.92;1.40;;;;;;;;;;5072898;28;20032;-78
2023/06/19 04:12:34;;;;;;;1.60;1.50;;;;;;;;;;5073049;28;20036;-76
2023/06/19 04:14:59;;;;;;;3.22;1.60;;;;;;;;;;5055023;28;20502;-78
2023/06/19 04:17:25;;;;;;;2.35;1.63;;;;;;;;;;5056572;28;20490;-77
2023/06/19 04:19:50;;;;;;;5.05;2.00;;;;;;;;;;5059244;28;20021;-76
2023/06/19 04:22:15;;;;;;;3.75;1.83;;;;;;;;;;5077146;28;20417;-77
2023/06/19 04:24:41;;;;;;;2.97;1.70;;;;;;;;;;5059166;28;20035;-77
2023/06/19 04:27:08;;;;;;;2.35;1.60;;;;;;;;;;5059210;28;20051;-78
2023/06/19 04:29:34;;;;;;;5.78;1.85;;;;;;;;;;5076916;28;20028;-77
2023/06/19 04:31:59;;;;;;;9.30;2.25;;;;;;;;;;5058904;28;20039;-78
2023/06/19 04:34:25;;;;;;;9.50;1.80;;;;;;;;;;5042611;28;20029;-77
2023/06/19 04:36:51;;;;;;;3.22;2.20;;;;;;;;;;5077073;28;20040;-79
2023/06/19 04:39:16;;;;;;;4.65;2.08;;;;;;;;;;5058787;28;20031;-77
2023/06/19 04:41:43;;;;;;;5.20;2.05;;;;;;;;;;5058570;28;20047;-78
2023/06/19 04:44:11;;;;;;;4.78;2.10;;;;;;;;;;5058846;28;20027;-78
2023/06/19 04:46:37;;;;;;;4.47;2.00;;;;;;;;;;5059197;28;20083;-80
2023/06/19 04:49:04;;;;;;;5.45;2.28;;;;;;;;;;5042820;28;20028;-78
2023/06/19 04:51:32;;;;;;;4.63;2.08;;;;;;;;;;5076562;28;20051;-77
2023/06/19 04:53:58;;;;;;;4.18;2.10;;;;;;;;;;5059109;28;20025;-77
2023/06/19 04:56:23;;;;;;;6.55;2.40;;;;;;;;;;5041833;28;20040;-78
2023/06/19 04:58:49;;;;;;;4.60;2.55;;;;;;;;;;5042028;28;20036;-78
2023/06/19 05:01:15;;;;;;;4.20;2.50;;;;;;;;;;5076729;28;20032;-79
2023/06/19 05:03:43;;;;;;;5.60;2.63;;;;;;;;;;5041852;28;20025;-77
2023/06/19 05:06:08;;;;;;;7.15;2.35;;;;;;;;;;5058534;28;20016;-78
2023/06/19 05:08:34;;;;;;;3.05;2.10;;;;;;;;;;5076382;28;20028;-78
2023/06/19 05:11:00;;;;;;;3.97;2.42;;;;;;;;;;5058603;28;20115;-78
2023/06/19 05:13:25;;;;;;;4.82;2.42;;;;;;;;;;5076281;28;20033;-78
2023/06/19 05:15:51;;;;;;;10.30;2.28;;;;;;;;;;5041985;28;20036;-78
2023/06/19 05:18:17;;;;;;;2.65;2.03;;;;;;;;;;5058876;28;20047;-80
2023/06/19 05:20:42;;;;;;;4.43;2.20;;;;;;;;;;5059900;28;20052;-77
2023/06/19 05:23:08;;;;;;;3.70;2.13;;;;;;;;;;5058292;28;20395;-80
2023/06/19 05:25:33;;;;;;;3.22;1.92;;;;;;;;;;5058318;28;20487;-79
2023/06/19 05:27:58;;;;;;;3.22;2.10;;;;;;;;;;5058320;28;20035;-79
2023/06/19 05:30:24;;;;;;;2.30;1.92;;;;;;;;;;5057059;28;20032;-77
2023/06/19 05:32:49;;;;;;;2.33;1.90;;;;;;;;;;5058030;28;20082;-77
2023/06/19 05:35:14;;;;;;;2.55;1.80;;;;;;;;;;5041264;28;20475;-79
2023/06/19 05:37:42;;;;;;;2.13;1.80;;;;;;;;;;5041139;28;20056;-80
2023/06/19 05:40:09;;;;;;;6.05;2.00;;;;;;;;;;5041530;28;20040;-79
2023/06/19 05:42:35;;;;;;;1.90;1.65;;;;;;;;;;5058388;28;20036;-78
2023/06/19 05:45:00;;;;;;;2.78;1.77;;;;;;;;;;5057814;28;20021;-80
2023/06/19 05:47:26;;;;;;;4.13;1.92;;;;;;;;;;5075868;28;20051;-80
2023/06/19 05:49:51;;;;;;;2.55;1.65;;;;;;;;;;5075538;28;20031;-80
2023/06/19 05:52:17;;;;;;;1.83;1.60;;;;;;;;;;5075496;28;20072;-79
2023/06/19 05:54:42;;;;;;;1.77;1.50;;;;;;;;;;5057948;28;20040;-79
2023/06/19 05:57:08;;;;;;;1.60;1.50;;;;;;;;;;5075616;28;20028;-79
2023/06/19 05:59:33;;;;;;;1.75;1.65;;;;;;;;;;5076163;28;20033;-79
2023/06/19 06:01:58;;;;;;;1.80;1.70;;;;;;;;;;5057567;28;20060;-79
2023/06/19 06:04:24;;;;;;;1.55;1.45;;;;;;;;;;5075683;28;20040;-79
2023/06/19 06:06:49;;;;;;;2.13;1.77;;;;;;;;;;5075555;28;20028;-79
2023/06/19 06:09:16;;;;;;;1.83;1.65;;;;;;;;;;5057384;28;20047;-79
2023/06/19 06:11:42;;;;;;;2.90;1.85;;;;;;;;;;5057401;28;20038;-79
2023/06/19 06:14:07;;;;;;;2.60;2.00;;;;;;;;;;5057380;28;20020;-79
2023/06/19 06:16:32;;;;;;;1.70;1.60;;;;;;;;;;5057225;28;20107;-79
2023/06/19 06:18:58;;;;;;;1.92;1.67;;;;;;;;;;5057857;28;20036;-79
2023/06/19 06:21:24;;;;;;;1.77;1.67;;;;;;;;;;5040600;28;20464;-79
2023/06/19 06:23:49;;;;;;;1.90;1.80;;;;;;;;;;5057441;28;20526;-79
2023/06/19 06:26:15;;;;;;;1.80;1.70;;;;;;;;;;5075000;28;20025;-79
2023/06/19 06:28:41;;;;;;;2.67;1.70;;;;;;;;;;5040577;28;20041;-79
2023/06/19 06:31:06;;;;;;;1.60;1.50;;;;;;;;;;5075181;28;20471;-79
2023/06/19 06:33:32;;;;;;;1.83;1.73;;;;;;;;;;5056579;28;20039;-79
2023/06/19 06:35:57;;;;;;;1.50;1.40;;;;;;;;;;5075160;28;20037;-79
2023/06/19 06:38:23;;;;;;;1.75;1.65;;;;;;;;;;5056964;28;20185;-79
2023/06/19 06:40:48;;;;;;;1.90;1.80;;;;;;;;;;5056773;28;20028;-80
2023/06/19 06:43:14;;;;;;;2.10;1.90;;;;;;;;;;5056445;28;20028;-78
2023/06/19 06:45:41;;;;;;;1.75;1.65;;;;;;;;;;5040133;28;20043;-80
2023/06/19 06:48:07;;;;;;;2.72;1.90;;;;;;;;;;5074847;28;20107;-78
2023/06/19 06:50:33;;;;;;;2.78;2.05;;;;;;;;;;5035294;28;20128;-77
2023/06/19 06:52:58;;;;;;;2.75;1.88;;;;;;;;;;5036717;28;20041;-78
2023/06/19 06:55:24;;;;;;;3.20;1.70;;;;;;;;;;5036493;28;20029;-77
2023/06/19 06:57:49;;;;;;;3.25;1.92;;;;;;;;;;5003630;28;20061;-77
2023/06/19 07:00:15;;;;;;;2.40;1.90;;;;;;;;;;5036521;28;20025;-77
2023/06/19 07:02:40;;;;;;;2.30;2.00;;;;;;;;;;5036393;28;20483;-78
2023/06/19 07:05:10;;;;;;;3.97;2.30;;;;;;;;;;5019966;28;20033;-77
2023/06/19 07:07:36;;;;;;;3.25;2.05;;;;;;;;;;5034269;28;20025;-77
2023/06/19 07:10:01;;;;;;;4.00;1.95;;;;;;;;;;5036078;28;20025;-77
2023/06/19 07:12:26;;;;;;;3.15;2.20;;;;;;;;;;5003396;28;20057;-77
2023/06/19 07:14:55;;;;;;;2.58;2.10;;;;;;;;;;5053690;28;20032;-76
2023/06/19 07:17:20;;;;;;;2.92;2.15;;;;;;;;;;5019392;28;20552;-77
2023/06/19 07:19:46;;;;;;;4.25;2.25;;;;;;;;;;5053595;28;20143;-77
2023/06/19 07:22:11;;;;;;;3.53;2.40;;;;;;;;;;5035672;28;20064;-78
2023/06/19 07:24:37;;;;;;;5.13;2.75;;;;;;;;;;5003163;28;20086;-76
2023/06/19 07:27:03;;;;;;;3.83;2.70;;;;;;;;;;5035644;28;20036;-77
2023/06/19 07:29:29;;;;;;;4.57;2.35;;;;;;;;;;5053446;28;20032;-77
2023/06/19 07:31:55;;;;;;;4.15;2.95;;;;;;;;;;5053549;28;20032;-77
2023/06/19 07:34:21;;;;;;;3.25;2.50;;;;;;;;;;5035714;28;20037;-77
2023/06/19 07:36:46;;;;;;;4.03;2.80;;;;;;;;;;5053443;28;20053;-77
2023/06/19 07:39:12;;;;;;;4.38;3.10;;;;;;;;;;5035422;28;20505;-77
2023/06/19 07:41:37;;;;;;;3.10;2.80;;;;;;;;;;5035795;28;20508;-76
2023/06/19 07:44:03;;;;;;;3.35;3.05;;;;;;;;;;5019099;28;20029;-77
2023/06/19 07:46:29;;;;;;;4.80;3.22;;;;;;;;;;5035476;28;20418;-77
2023/06/19 07:48:54;;;;;;;3.42;3.03;;;;;;;;;;5035746;28;20057;-76
2023/06/19 07:51:20;;;;;;;6.55;3.33;;;;;;;;;;5053067;28;20522;-78
2023/06/19 07:53:46;;;;;;;6.70;3.17;;;;;;;;;;5036012;28;20035;-76
2023/06/19 07:56:11;;;;;;;4.55;3.00;;;;;;;;;;5019463;28;20041;-77
2023/06/19 07:58:37;;;;;;;6.07;2.97;;;;;;;;;;5054066;28;20029;-78
2023/06/19 08:01:02;;;;;;;4.03;3.30;;;;;;;;;;5053329;28;20052;-77
2023/06/19 08:03:27;;;;;;;4.97;2.95;;;;;;;;;;5035426;28;20041;-77
2023/06/19 08:05:53;;;;;;;5.07;3.05;;;;;;;;;;5053198;28;20053;-78
2023/06/19 08:08:18;;;;;;;12.18;3.90;;;;;;;;;;5018836;28;20082;-77
2023/06/19 08:10:44;;;;;;;8.02;3.55;;;;;;;;;;5053304;28;20379;-78
2023/06/19 08:13:11;;;;;;;7.45;3.45;;;;;;;;;;5035442;28;20021;-78
2023/06/19 08:15:37;;;;;;;9.27;3.63;;;;;;;;;;5053769;28;20481;-78
2023/06/19 08:18:02;;;;;;;9.40;3.53;;;;;;;;;;5055625;28;20025;-78
2023/06/19 08:20:28;;;;;;;5.32;3.35;;;;;;;;;;5056166;28;20029;-78
2023/06/19 08:22:53;;;;;;;5.97;3.67;;;;;;;;;;5036923;28;20510;-78
2023/06/19 08:25:18;;;;;;;4.20;3.60;;;;;;;;;;5054824;28;20032;-78
2023/06/19 08:27:45;;;;;;;6.68;3.42;;;;;;;;;;5022880;28;20025;-79
2023/06/19 08:30:11;;;;;;;7.40;3.75;;;;;;;;;;5053380;28;20029;-78
2023/06/19 08:32:36;;;;;;;5.53;4.07;;;;;;;;;;5018932;28;20036;-78
2023/06/19 08:35:02;;;;;;;9.77;4.20;;;;;;;;;;5053024;28;20025;-79
2023/06/19 08:37:28;;;;;;;8.52;4.22;;;;;;;;;;5035989;28;20032;-79
2023/06/19 08:39:56;;;;;;;6.15;4.30;;;;;;;;;;5053255;28;20033;-81
2023/06/19 08:42:22;;;;;;;12.88;4.20;;;;;;;;;;5035289;28;20040;-78
2023/06/19 08:44:48;;;;;;;5.72;4.47;;;;;;;;;;5018812;28;20036;-78
2023/06/19 08:47:13;;;;;;;5.72;3.70;;;;;;;;;;5034965;28;20041;-78
2023/06/19 08:49:39;;;;;;;6.25;4.20;;;;;;;;;;5052804;28;20033;-79
2023/06/19 08:52:04;;;;;;;4.82;3.90;;;;;;;;;;5069631;28;20056;-78
2023/06/19 08:54:30;;;;;;;6.97;4.82;;;;;;;;;;5073574;28;20032;-79
2023/06/19 08:56:56;;;;;;;4.75;4.15;;;;;;;;;;5055095;28;20028;-78
2023/06/19 08:59:21;;;;;;;5.47;4.10;;;;;;;;;;5055055;28;20025;-79
2023/06/19 09:01:54;;;;;;;5.00;3.80;;;;;;;;;;5021801;28;20403;-78
2023/06/19 09:04:26;;;;;;;6.28;4.22;;;;;;;;;;5041682;28;20032;-78
2023/06/19 09:06:57;;;;;;;4.90;3.83;;;;;;;;;;5042231;28;20029;-78
2023/06/19 09:09:24;;;;;;;7.22;3.97;;;;;;;;;;5076882;28;20542;-79
2023/06/19 09:12:07;;;;;;;4.25;3.75;;;;;;;;;;5058688;28;20479;-78
2023/06/19 09:14:33;;;;;;;6.90;4.00;;;;;;;;;;5042008;28;20025;-78
2023/06/19 09:16:59;;;;;;;4.07;3.63;;;;;;;;;;5058289;28;20384;-79
2023/06/19 09:19:24;;;;;;;5.50;4.32;;;;;;;;;;5076506;28;20040;-78
2023/06/19 09:21:50;;;;;;;4.18;3.78;;;;;;;;;;5076243;28;20036;-78
2023/06/19 09:24:16;;;;;;;4.20;3.72;;;;;;;;;;5058734;28;20074;-79
2023/06/19 09:26:41;;;;;;;4.88;3.95;;;;;;;;;;5076584;28;20039;-79
2023/06/19 09:29:11;;;;;;;4.35;3.83;;;;;;;;;;5058232;28;20032;-78
2023/06/19 09:31:37;;;;;;;4.78;4.20;;;;;;;;;;5041657;28;20072;-78
2023/06/19 09:34:04;;;;;;;5.00;3.80;;;;;;;;;;5076204;28;20122;-78
2023/06/19 09:36:31;;;;;;;4.55;4.00;;;;;;;;;;5040075;28;20454;-78
2023/06/19 09:38:59;;;;;;;7.20;4.15;;;;;;;;;;5040993;28;20024;-78
2023/06/19 09:41:25;;;;;;;4.15;3.75;;;;;;;;;;5057847;28;20025;-79
2023/06/19 09:43:59;;;;;;;5.03;3.95;;;;;;;;;;5041446;28;20059;-79
2023/06/19 09:46:27;;;;;;;5.00;3.63;;;;;;;;;;5058303;28;20032;-78
2023/06/19 09:48:54;;;;;;;4.05;3.65;;;;;;;;;;5058138;28;20051;-78
2023/06/19 09:51:41;;;;;;;7.95;3.85;;;;;;;;;;5057703;28;20077;-78
2023/06/19 09:54:07;;;;;;;6.95;4.07;;;;;;;;;;5057399;28;20020;-77
2023/06/19 09:56:34;;;;;;;8.38;4.10;;;;;;;;;;5074823;28;20052;-78
2023/06/19 09:59:00;;;;;;;6.70;3.97;;;;;;;;;;5057172;28;20024;-78
2023/06/19 10:01:27;;;;;;;5.10;4.10;;;;;;;;;;5056977;28;20025;-77
2023/06/19 10:04:05;;;;;;;5.15;4.10;;;;;;;;;;5040602;28;20028;-77
2023/06/19 10:06:30;;;;;;;6.85;4.32;;;;;;;;;;5056557;28;20132;-77
2023/06/19 10:09:06;;;;;;;6.57;4.45;;;;;;;;;;5056475;28;20462;-77
2023/06/19 10:11:45;;;;;;;4.75;4.10;;;;;;;;;;5074665;28;20403;-78
2023/06/19 10:14:10;;;;;;;9.30;4.60;;;;;;;;;;5074676;28;20033;-77
2023/06/19 10:16:36;;;;;;;6.45;4.20;;;;;;;;;;5056421;28;20494;-78
2023/06/19 10:19:11;;;;;;;4.88;4.20;;;;;;;;;;5023579;28;20032;-78
2023/06/19 10:21:52;;;;;;;5.30;4.40;;;;;;;;;;5075005;28;20020;-77
2023/06/19 10:24:19;;;;;;;6.15;4.22;;;;;;;;;;5056162;28;20395;-77
2023/06/19 10:26:57;;;;;;;6.82;4.18;;;;;;;;;;5056606;28;20046;-77
2023/06/19 10:29:23;;;;;;;7.50;4.65;;;;;;;;;;5056534;28;20100;-77
2023/06/19 10:31:49;;;;;;;5.70;4.57;;;;;;;;;;5074450;28;20487;-78
2023/06/19 10:34:14;;;;;;;5.10;4.60;;;;;;;;;;5074474;28;20058;-77
2023/06/19 10:36:40;;;;;;;5.07;4.57;;;;;;;;;;5074156;28;20063;-78
2023/06/19 10:39:06;;;;;;;5.13;4.38;;;;;;;;;;5039648;28;20132;-77
2023/06/19 10:41:32;;;;;;;5.45;4.70;;;;;;;;;;5073993;28;20103;-78
2023/06/19 10:44:03;;;;;;;5.68;4.40;;;;;;;;;;5056414;28;20112;-78
2023/06/19 10:46:36;;;;;;;5.75;5.15;;;;;;;;;;5056207;28;20031;-76
2023/06/19 10:49:04;;;;;;;7.88;5.25;;;;;;;;;;5074346;28;20033;-77
2023/06/19 10:51:40;;;;;;;7.55;5.05;;;;;;;;;;5055924;28;20105;-78
2023/06/19 10:54:07;;;;;;;4.70;4.30;;;;;;;;;;5074052;28;20158;-79
2023/06/19 10:56:33;;;;;;;6.03;4.75;;;;;;;;;;5055792;28;20028;-78
2023/06/19 10:59:05;;;;;;;6.13;4.93;;;;;;;;;;5055952;28;20025;-78
2023/06/19 11:01:41;;;;;;;6.03;5.05;;;;;;;;;;5056102;28;20391;-79
2023/06/19 11:04:09;;;;;;;7.50;4.90;;;;;;;;;;5056058;28;20028;-78
2023/06/19 11:06:35;;;;;;;6.95;5.28;;;;;;;;;;5039131;28;20036;-78
2023/06/19 11:09:01;;;;;;;7.53;5.28;;;;;;;;;;5055614;28;20021;-78
2023/06/19 11:11:40;;;;;;;4.95;4.45;;;;;;;;;;5073417;28;20035;-78
2023/06/19 11:14:06;;;;;;;5.97;5.03;;;;;;;;;;5055716;28;20028;-78
2023/06/19 11:16:33;;;;;;;6.05;4.75;;;;;;;;;;5073385;28;20340;-78
2023/06/19 11:18:59;;;;;;;5.40;4.65;;;;;;;;;;5055516;28;20055;-78
2023/06/19 11:21:37;;;;;;;5.22;4.18;;;;;;;;;;5055496;28;20036;-78
2023/06/19 11:24:05;;;;;;;6.97;4.85;;;;;;;;;;5022931;28;20040;-77
2023/06/19 11:26:37;;;;;;;4.80;4.22;;;;;;;;;;5072593;28;20029;-78
2023/06/19 11:29:16;;;;;;;6.17;4.50;;;;;;;;;;5055233;28;20022;-77
2023/06/19 11:31:41;;;;;;;5.22;4.68;;;;;;;;;;5055290;28;20027;-78
2023/06/19 11:34:07;;;;;;;6.68;4.45;;;;;;;;;;5038320;28;20032;-77
2023/06/19 11:36:32;;;;;;;4.97;4.47;;;;;;;;;;5055121;28;20094;-77
2023/06/19 11:38:58;;;;;;;5.63;4.20;;;;;;;;;;5055120;28;20024;-78
2023/06/19 11:41:27;;;;;;;4.97;4.38;;;;;;;;;;5038425;28;20086;-77
2023/06/19 11:44:00;;;;;;;5.40;4.28;;;;;;;;;;5073420;28;20039;-78
2023/06/19 11:46:30;;;;;;;5.68;4.80;;;;;;;;;;5038793;28;20032;-78
2023/06/19 11:49:19;;;;;;;5.47;4.43;;;;;;;;;;5074874;28;20032;-78
2023/06/19 11:51:45;;;;;;;5.22;4.72;;;;;;;;;;5073138;28;20074;-78
2023/06/19 11:54:14;;;;;;;5.25;4.70;;;;;;;;;;5038652;28;20044;-78
2023/06/19 11:56:40;;;;;;;7.13;4.78;;;;;;;;;;5075738;28;20048;-78
2023/06/19 11:59:06;;;;;;;5.40;4.85;;;;;;;;;;5075538;28;20434;-78
2023/06/19 12:01:32;;;;;;;5.50;5.00;;;;;;;;;;5075263;28;20502;-78
2023/06/19 12:03:58;;;;;;;4.95;4.45;;;;;;;;;;5058001;28;20121;-78
2023/06/19 12:06:23;;;;;;;7.20;4.70;;;;;;;;;;5074969;28;20571;-78
2023/06/19 12:08:49;;;;;;;5.78;4.60;;;;;;;;;;5092756;28;20146;-78
2023/06/19 12:11:14;;;;;;;5.68;4.50;;;;;;;;;;5076348;28;20028;-78
2023/06/19 12:13:41;;;;;;;4.85;4.30;;;;;;;;;;5054681;28;20475;-77
2023/06/19 12:16:07;;;;;;;5.25;4.75;;;;;;;;;;5055159;28;20032;-77
2023/06/19 12:18:32;;;;;;;6.72;4.70;;;;;;;;;;5055376;28;20446;-78
2023/06/19 12:20:58;;;;;;;5.47;4.85;;;;;;;;;;5054853;28;20029;-78
2023/06/19 12:23:24;;;;;;;7.45;4.25;;;;;;;;;;5072921;28;20028;-78
2023/06/19 12:25:50;;;;;;;5.25;4.47;;;;;;;;;;5038649;28;20067;-78
2023/06/19 12:28:18;;;;;;;9.18;4.57;;;;;;;;;;5073209;28;20028;-77
2023/06/19 12:30:44;;;;;;;5.63;4.72;;;;;;;;;;5055535;28;20475;-77
2023/06/19 12:33:10;;;;;;;5.00;4.45;;;;;;;;;;5038400;28;20047;-77
2023/06/19 12:35:37;;;;;;;6.80;4.78;;;;;;;;;;5073198;28;20093;-77
2023/06/19 12:38:02;;;;;;;5.18;4.43;;;;;;;;;;5056227;28;20522;-77
2023/06/19 12:40:28;;;;;;;5.25;4.68;;;;;;;;;;5076956;28;20104;-78
2023/06/19 12:42:53;;;;;;;5.50;4.50;;;;;;;;;;5059189;28;20029;-78
2023/06/19 12:45:19;;;;;;;6.18;4.43;;;;;;;;;;5077037;28;20029;-78
2023/06/19 12:47:44;;;;;;;5.25;4.75;;;;;;;;;;5077517;28;20447;-79
2023/06/19 12:50:11;;;;;;;5.82;4.70;;;;;;;;;;5059457;28;20021;-78
2023/06/19 12:52:36;;;;;;;6.05;4.20;;;;;;;;;;5076965;28;20399;-78
2023/06/19 12:55:02;;;;;;;7.47;4.75;;;;;;;;;;5069563;28;20028;-78
2023/06/19 12:57:27;;;;;;;6.13;4.75;;;;;;;;;;5061902;28;20207;-78
2023/06/19 12:59:53;;;;;;;6.93;4.72;;;;;;;;;;5096825;28;20065;-78
2023/06/19 13:02:18;;;;;;;6.28;4.07;;;;;;;;;;5096629;28;20033;-78
2023/06/19 13:04:43;;;;;;;6.53;4.53;;;;;;;;;;5061709;28;20110;-78
2023/06/19 13:07:09;;;;;;;5.63;4.13;;;;;;;;;;5078863;28;20433;-79
2023/06/19 13:09:35;;;;;;;7.28;4.53;;;;;;;;;;5061298;28;20038;-78
2023/06/19 13:12:01;;;;;;;5.20;4.70;;;;;;;;;;5096955;28;20486;-79
2023/06/19 13:14:26;;;;;;;4.32;3.90;;;;;;;;;;5077782;28;20042;-78
2023/06/19 13:16:52;;;;;;;5.47;4.57;;;;;;;;;;5096402;28;20390;-78
2023/06/19 13:19:17;;;;;;;6.30;4.53;;;;;;;;;;5061164;28;20102;-79
2023/06/19 13:21:43;;;;;;;5.07;4.47;;;;;;;;;;5078059;28;20452;-78
2023/06/19 13:24:09;;;;;;;5.50;4.47;;;;;;;;;;5077742;28;20033;-78
2023/06/19 13:26:34;;;;;;;4.53;4.13;;;;;;;;;;5095876;28;20386;-78
2023/06/19 13:29:00;;;;;;;4.65;4.22;;;;;;;;;;5077782;28;20123;-78
2023/06/19 13:31:26;;;;;;;5.45;4.68;;;;;;;;;;5061068;28;20020;-78
2023/06/19 13:33:51;;;;;;;6.85;4.82;;;;;;;;;;5063354;28;20031;-79
2023/06/19 13:36:18;;;;;;;4.35;3.95;;;;;;;;;;5094266;28;20502;-79
2023/06/19 13:38:44;;;;;;;5.28;4.50;;;;;;;;;;5061086;28;20055;-79
2023/06/19 13:41:09;;;;;;;3.90;3.55;;;;;;;;;;5059183;28;20106;-79
2023/06/19 13:43:34;;;;;;;4.38;3.80;;;;;;;;;;5076011;28;20024;-79
2023/06/19 13:46:03;;;;;;;4.68;4.22;;;;;;;;;;5041109;28;20052;-78
2023/06/19 13:48:28;;;;;;;5.57;4.25;;;;;;;;;;5057768;28;20033;-78
2023/06/19 13:50:53;;;;;;;4.88;4.25;;;;;;;;;;5040120;28;20392;-79
2023/06/19 13:53:20;;;;;;;5.57;4.18;;;;;;;;;;5076335;28;20506;-78
2023/06/19 13:55:46;;;;;;;5.32;4.28;;;;;;;;;;5060897;28;20441;-79
2023/06/19 13:58:12;;;;;;;4.45;3.97;;;;;;;;;;5095797;28;20028;-78
2023/06/19 14:00:38;;;;;;;6.07;4.22;;;;;;;;;;5095588;28;20035;-78
2023/06/19 14:03:06;;;;;;;5.95;4.88;;;;;;;;;;5077585;28;20478;-78
2023/06/19 14:05:32;;;;;;;4.10;3.70;;;;;;;;;;5094955;28;20047;-79
2023/06/19 14:07:58;;;;;;;4.70;4.30;;;;;;;;;;5060712;28;20023;-79
2023/06/19 14:10:24;;;;;;;5.15;4.57;;;;;;;;;;5076892;28;20490;-79
2023/06/19 14:12:49;;;;;;;5.82;4.72;;;;;;;;;;5077764;28;20444;-79
2023/06/19 14:15:14;;;;;;;5.45;4.43;;;;;;;;;;5059904;28;20032;-79
2023/06/19 14:17:41;;;;;;;5.13;4.00;;;;;;;;;;5094947;28;20040;-79
2023/06/19 14:20:08;;;;;;;4.53;3.85;;;;;;;;;;5095496;28;20391;-78
2023/06/19 14:22:34;;;;;;;4.97;4.32;;;;;;;;;;5095299;28;20056;-78
2023/06/19 14:25:01;;;;;;;6.03;4.43;;;;;;;;;;5076983;28;20536;-79
2023/06/19 14:27:27;;;;;;;5.35;4.53;;;;;;;;;;5095145;28;20039;-79
2023/06/19 14:29:54;;;;;;;4.55;4.15;;;;;;;;;;5057008;28;20029;-79
2023/06/19 14:32:20;;;;;;;6.82;4.28;;;;;;;;;;5074950;28;20054;-78
2023/06/19 14:34:45;;;;;;;5.90;4.35;;;;;;;;;;5056927;28;20024;-78
2023/06/19 14:37:11;;;;;;;4.43;3.83;;;;;;;;;;5056652;28;20112;-79
2023/06/19 14:39:36;;;;;;;5.00;4.18;;;;;;;;;;5056843;28;20059;-79